Terminal Aerodrome Forecast
Issued by NWS

Home | Current Version | Previous Version | Text Only | Print | Product List | Glossary On
Versions: 1 2 3 4 5 6 7 8 9 10 11 12 13 14
060
FTUS45 KVEF 300520
TAFHND
TAF
KHND 300520Z 3006/3106 20007KT P6SM SCT250
     FM301600 21012G18KT P6SM SCT250
     FM301900 22025G33KT P6SM SCT250
     FM302100 25036G46KT P6SM SCT250
     FM302300 30024G32KT P6SM SCT150=

USA.gov is the U.S. government's official web portal to all federal, state and local government web resources and services.